Time;durP1;ratioP1;P1;durP2;ratioP2;P2;SDS_P1;SDS_P2;PMS_P1;PMS_P2;Temp;Humidity;BMP_temperature;BMP_pressure;BME280_temperature;BME280_humidity;BME280_pressure;Samples;Min_cycle;Max_cycle;Signal;HPM_P1;HPM_P2
2023/05/15 00:00:14;;;;;;;20.88;18.73;;;15.70;59.90;;;;;;4984186;28;114867;-80
2023/05/15 00:02:43;;;;;;;24.48;21.73;;;15.70;60.20;;;;;;4984565;28;115953;-79
2023/05/15 00:05:12;;;;;;;21.52;18.33;;;15.70;60.30;;;;;;4985417;28;114447;-79
2023/05/15 00:07:40;;;;;;;15.82;13.90;;;15.70;60.10;;;;;;4985400;28;115919;-80
2023/05/15 00:10:07;;;;;;;20.55;17.27;;;15.70;59.50;;;;;;4983152;28;114279;-80
2023/05/15 00:12:35;;;;;;;18.42;15.90;;;15.70;60.00;;;;;;4984424;28;114814;-81
2023/05/15 00:15:03;;;;;;;14.95;13.45;;;15.60;60.00;;;;;;4983637;28;114366;-80
2023/05/15 00:17:30;;;;;;;18.30;16.35;;;15.60;59.70;;;;;;4985039;28;114230;-79
2023/05/15 00:19:58;;;;;;;24.02;21.00;;;15.60;59.90;;;;;;4984351;28;114812;-79
2023/05/15 00:22:26;;;;;;;22.08;19.83;;;15.70;60.70;;;;;;4984242;28;114750;-79
2023/05/15 00:24:53;;;;;;;14.95;13.35;;;15.70;60.50;;;;;;4984812;28;114317;-80
2023/05/15 00:27:20;;;;;;;16.38;14.77;;;15.70;59.60;;;;;;4985611;28;115040;-80
2023/05/15 00:29:47;;;;;;;16.67;14.52;;;15.70;59.60;;;;;;4999580;28;114949;-80
2023/05/15 00:32:14;;;;;;;23.95;21.40;;;15.70;59.40;;;;;;4982695;28;115028;-80
2023/05/15 00:34:41;;;;;;;26.17;23.38;;;15.80;60.10;;;;;;4984225;28;114608;-80
2023/05/15 00:37:08;;;;;;;16.17;14.50;;;15.80;60.30;;;;;;4983766;28;114230;-79
2023/05/15 00:39:37;;;;;;;19.38;17.35;;;15.70;59.30;;;;;;4983899;28;114910;-79
2023/05/15 00:42:04;;;;;;;17.27;15.48;;;15.70;59.70;;;;;;4980911;28;114764;-79
2023/05/15 00:44:32;;;;;;;15.20;13.68;;;15.70;59.40;;;;;;4984036;28;114223;-79
2023/05/15 00:46:59;;;;;;;16.27;14.48;;;15.70;59.10;;;;;;4982800;28;116742;-78
2023/05/15 00:49:28;;;;;;;24.55;21.90;;;15.70;59.00;;;;;;4981854;28;115012;-78
2023/05/15 00:52:00;;;;;;;18.50;16.50;;;15.80;59.70;;;;;;4983074;28;114744;-78
2023/05/15 00:54:28;;;;;;;25.20;22.50;;;15.70;59.30;;;;;;4983672;28;114226;-78
2023/05/15 00:56:58;;;;;;;19.95;17.58;;;15.50;60.50;;;;;;4967180;28;116758;-79
2023/05/15 00:59:27;;;;;;;31.65;27.35;;;15.30;60.40;;;;;;4983368;28;114801;-79
2023/05/15 01:01:54;;;;;;;20.30;18.05;;;15.20;61.80;;;;;;4983787;28;115155;-79
2023/05/15 01:04:21;;;;;;;23.48;20.60;;;15.20;60.80;;;;;;4983269;28;114738;-79
2023/05/15 01:06:48;;;;;;;21.30;18.73;;;15.30;61.00;;;;;;4999903;28;114356;-79
2023/05/15 01:09:16;;;;;;;15.07;13.45;;;15.20;60.90;;;;;;4983368;28;115502;-79
2023/05/15 01:11:43;;;;;;;29.70;24.80;;;15.30;60.20;;;;;;4983275;28;114574;-79
2023/05/15 01:14:10;;;;;;;26.98;23.63;;;15.30;61.20;;;;;;4983320;28;114526;-79
2023/05/15 01:16:37;;;;;;;16.95;15.25;;;15.30;61.00;;;;;;4983517;28;114581;-79
2023/05/15 01:19:05;;;;;;;23.70;20.83;;;15.20;60.50;;;;;;4982586;28;115133;-79
2023/05/15 01:21:36;;;;;;;29.75;26.55;;;15.20;61.20;;;;;;4998461;28;115132;-78
2023/05/15 01:24:40;;;;;;;20.90;18.50;;;15.20;62.00;;;;;;4983598;28;116295;-79
2023/05/15 01:27:36;;;;;;;21.58;17.60;;;15.10;61.30;;;;;;4988366;28;114430;-79
2023/05/15 01:30:06;;;;;;;27.40;23.38;;;15.10;60.90;;;;;;4987721;28;115159;-79
2023/05/15 01:32:50;;;;;;;22.88;19.50;;;15.20;61.50;;;;;;5002543;28;115098;-79
2023/05/15 01:35:28;;;;;;;16.65;14.77;;;15.30;60.60;;;;;;4985078;28;115968;-79
2023/05/15 01:38:06;;;;;;;21.13;18.80;;;15.30;60.00;;;;;;4986436;28;114380;-79
2023/05/15 01:40:33;;;;;;;23.88;21.10;;;15.50;60.30;;;;;;4987028;28;115852;-79
2023/05/15 01:43:02;;;;;;;24.90;21.65;;;15.50;60.40;;;;;;4968814;28;114674;-80
2023/05/15 01:45:29;;;;;;;22.58;19.42;;;15.60;60.40;;;;;;4983408;28;114350;-80
2023/05/15 01:47:56;;;;;;;16.88;14.88;;;15.70;59.90;;;;;;4986289;28;114337;-80
2023/05/15 01:50:26;;;;;;;26.15;23.02;;;15.70;59.30;;;;;;4984919;28;115020;-79
2023/05/15 01:52:55;;;;;;;25.40;22.20;;;15.80;60.00;;;;;;4985300;28;114742;-78
2023/05/15 01:55:25;;;;;;;18.55;16.45;;;15.80;60.10;;;;;;5002522;28;114373;-79
2023/05/15 01:57:53;;;;;;;33.92;27.95;;;15.70;59.20;;;;;;4986477;28;114267;-79
2023/05/15 02:00:20;;;;;;;19.15;17.00;;;15.70;60.60;;;;;;5001863;28;116732;-79
2023/05/15 02:02:48;;;;;;;19.50;17.45;;;15.70;59.50;;;;;;4986485;28;114806;-79
2023/05/15 02:05:17;;;;;;;31.60;27.52;;;15.80;59.30;;;;;;4985927;28;114399;-79
2023/05/15 02:07:46;;;;;;;17.33;15.50;;;15.80;60.30;;;;;;4986821;28;115018;-79
2023/05/15 02:10:14;;;;;;;22.80;20.42;;;15.80;59.10;;;;;;4986399;28;115534;-79
2023/05/15 02:12:45;;;;;;;25.77;22.92;;;15.80;59.40;;;;;;4984663;28;114687;-79
2023/05/15 02:15:12;;;;;;;21.77;18.13;;;15.80;59.60;;;;;;4985420;28;114416;-79
2023/05/15 02:17:40;;;;;;;20.35;18.00;;;15.90;59.00;;;;;;4986248;28;114303;-79
2023/05/15 02:20:07;;;;;;;21.35;18.27;;;15.90;58.80;;;;;;4986385;28;115094;-79
2023/05/15 02:22:37;;;;;;;25.80;22.00;;;15.90;58.90;;;;;;4984611;28;115356;-80
2023/05/15 02:25:04;;;;;;;26.88;22.90;;;16.00;59.10;;;;;;5002136;28;114765;-79
2023/05/15 02:27:50;;;;;;;26.40;23.58;;;15.90;59.20;;;;;;4986776;28;114284;-79
2023/05/15 02:30:37;;;;;;;23.13;20.63;;;15.90;59.30;;;;;;4984688;28;115011;-79
2023/05/15 02:33:20;;;;;;;30.60;25.48;;;15.90;58.80;;;;;;5002434;28;114564;-79
2023/05/15 02:35:52;;;;;;;25.42;22.02;;;15.90;59.60;;;;;;5002748;28;114222;-79
2023/05/15 02:38:22;;;;;;;20.95;18.67;;;15.80;59.60;;;;;;4986310;28;114223;-79
2023/05/15 02:40:51;;;;;;;21.50;18.92;;;15.80;59.20;;;;;;4985322;28;115527;-78
2023/05/15 02:43:19;;;;;;;28.52;23.30;;;15.70;59.30;;;;;;4965658;28;114675;-78
2023/05/15 02:45:46;;;;;;;24.27;21.55;;;15.70;59.80;;;;;;4984174;28;114325;-79
2023/05/15 02:48:14;;;;;;;23.70;21.17;;;15.70;60.00;;;;;;4985539;28;114499;-79
2023/05/15 02:50:42;;;;;;;19.92;17.80;;;15.70;60.20;;;;;;4985730;28;114909;-79
2023/05/15 02:53:09;;;;;;;26.75;23.48;;;15.60;59.70;;;;;;5001286;28;114813;-80
2023/05/15 02:55:37;;;;;;;29.20;24.15;;;15.60;60.40;;;;;;5000716;28;116786;-80
2023/05/15 02:58:04;;;;;;;21.60;18.58;;;15.60;60.50;;;;;;5002441;28;114346;-81
2023/05/15 03:00:32;;;;;;;28.75;25.23;;;15.60;59.90;;;;;;4985881;28;115181;-80
2023/05/15 03:02:59;;;;;;;21.45;18.67;;;15.60;60.80;;;;;;4967905;28;114755;-80
2023/05/15 03:05:26;;;;;;;25.00;22.35;;;15.60;60.10;;;;;;5002328;28;114349;-80
2023/05/15 03:07:55;;;;;;;23.60;21.10;;;15.70;60.50;;;;;;4986219;28;114439;-80
2023/05/15 03:10:26;;;;;;;25.95;22.60;;;15.60;60.30;;;;;;4985506;28;115548;-80
2023/05/15 03:12:57;;;;;;;26.15;21.65;;;15.60;60.40;;;;;;4967537;28;114906;-80
2023/05/15 03:15:24;;;;;;;24.17;20.80;;;15.60;60.40;;;;;;4986623;28;114395;-80
2023/05/15 03:17:52;;;;;;;30.80;26.05;;;15.50;60.40;;;;;;5001610;28;114566;-79
2023/05/15 03:20:19;;;;;;;18.77;16.70;;;15.50;61.00;;;;;;4983763;28;116019;-79
2023/05/15 03:22:46;;;;;;;23.33;20.65;;;15.50;60.10;;;;;;4984801;28;114740;-80
2023/05/15 03:25:14;;;;;;;28.13;24.90;;;15.50;60.40;;;;;;5001427;28;114625;-80
2023/05/15 03:27:41;;;;;;;26.25;21.75;;;15.50;61.10;;;;;;4984926;28;118822;-79
2023/05/15 03:30:09;;;;;;;29.85;26.17;;;15.50;60.60;;;;;;4999741;28;117176;-79
2023/05/15 03:32:36;;;;;;;19.70;17.60;;;15.50;61.10;;;;;;4983581;28;116680;-80
2023/05/15 03:35:04;;;;;;;23.58;21.00;;;15.50;60.00;;;;;;4986064;28;114348;-80
2023/05/15 03:37:31;;;;;;;23.00;20.55;;;15.60;60.30;;;;;;4984685;28;114346;-80
2023/05/15 03:39:59;;;;;;;30.88;27.52;;;15.60;60.40;;;;;;4979362;28;118041;-80
2023/05/15 03:42:28;;;;;;;27.77;23.95;;;15.70;60.50;;;;;;4967548;28;116146;-80
2023/05/15 03:44:55;;;;;;;20.38;18.27;;;15.60;60.40;;;;;;4985520;28;114282;-80
2023/05/15 03:47:23;;;;;;;21.05;17.42;;;15.50;60.00;;;;;;5000472;28;114266;-80
2023/05/15 03:49:51;;;;;;;27.73;22.58;;;15.60;59.80;;;;;;4984798;28;114861;-81
2023/05/15 03:52:18;;;;;;;19.33;17.23;;;15.60;60.20;;;;;;4999765;28;114643;-80
2023/05/15 03:54:46;;;;;;;24.23;21.42;;;15.70;59.60;;;;;;5000678;28;114400;-80
2023/05/15 03:57:13;;;;;;;113.38;96.30;;;15.70;60.00;;;;;;4985372;28;114497;-79
2023/05/15 03:59:40;;;;;;;20.92;17.88;;;15.70;60.60;;;;;;4980417;28;117128;-79
2023/05/15 04:02:07;;;;;;;23.23;20.67;;;15.70;59.50;;;;;;4983256;28;114692;-79
2023/05/15 04:04:34;;;;;;;23.35;19.90;;;15.70;59.70;;;;;;4985453;28;114150;-79
2023/05/15 04:07:01;;;;;;;26.75;23.05;;;15.70;59.50;;;;;;5000684;28;114373;-80
2023/05/15 04:09:28;;;;;;;22.10;19.25;;;15.70;59.90;;;;;;4982699;28;116089;-80
2023/05/15 04:11:55;;;;;;;23.42;20.35;;;15.70;59.50;;;;;;4984899;28;117960;-80
2023/05/15 04:14:22;;;;;;;27.02;22.45;;;15.70;59.80;;;;;;4967399;28;114280;-80
2023/05/15 04:16:49;;;;;;;20.25;18.10;;;15.70;60.20;;;;;;4985364;28;114453;-79
2023/05/15 04:19:17;;;;;;;23.98;21.30;;;15.60;59.90;;;;;;4997752;28;114940;-80
2023/05/15 04:21:45;;;;;;;21.15;18.65;;;15.60;60.20;;;;;;4983926;28;117313;-80
2023/05/15 04:24:12;;;;;;;23.95;21.35;;;15.40;60.00;;;;;;4985217;28;114441;-80
2023/05/15 04:26:39;;;;;;;24.80;22.08;;;15.50;60.40;;;;;;4985318;28;114357;-79
2023/05/15 04:29:06;;;;;;;24.92;22.15;;;15.40;60.50;;;;;;4984225;28;116095;-79
2023/05/15 04:31:33;;;;;;;23.27;20.77;;;15.40;60.70;;;;;;4983140;28;114541;-80
2023/05/15 04:34:02;;;;;;;22.80;20.00;;;15.20;60.60;;;;;;4983534;28;114473;-79
2023/05/15 04:36:30;;;;;;;24.13;20.67;;;15.20;60.90;;;;;;4983206;28;114636;-79
2023/05/15 04:38:58;;;;;;;22.13;19.83;;;15.20;60.90;;;;;;4983044;28;114944;-79
2023/05/15 04:41:25;;;;;;;23.27;20.77;;;15.20;60.80;;;;;;4981905;28;116013;-79
2023/05/15 04:43:53;;;;;;;27.60;24.55;;;15.30;60.80;;;;;;4984341;28;117609;-80
2023/05/15 04:46:20;;;;;;;24.85;20.35;;;15.40;61.30;;;;;;4984713;28;114102;-80
2023/05/15 04:48:48;;;;;;;31.20;19.92;;;15.40;60.50;;;;;;4984361;28;114993;-81
2023/05/15 04:51:15;;;;;;;20.92;18.70;;;15.50;60.20;;;;;;4983580;28;116520;-80
2023/05/15 04:53:42;;;;;;;21.92;19.55;;;15.60;60.00;;;;;;4983666;28;114132;-80
2023/05/15 04:56:10;;;;;;;21.25;18.95;;;15.60;59.90;;;;;;4980690;28;114511;-79
2023/05/15 04:58:37;;;;;;;21.50;19.15;;;15.70;59.70;;;;;;4984564;28;115742;-80
2023/05/15 05:01:04;;;;;;;23.60;21.10;;;15.70;59.70;;;;;;4987542;28;115368;-80
2023/05/15 05:03:31;;;;;;;23.88;21.17;;;15.70;59.90;;;;;;4988083;28;114267;-79
2023/05/15 05:05:59;;;;;;;29.10;25.08;;;15.70;59.90;;;;;;4987471;28;114481;-79
2023/05/15 05:08:26;;;;;;;21.42;19.13;;;15.60;60.50;;;;;;4985830;28;115463;-79
2023/05/15 05:10:56;;;;;;;22.35;19.85;;;15.70;59.70;;;;;;4987480;28;114654;-79
2023/05/15 05:13:23;;;;;;;22.20;19.80;;;15.70;59.90;;;;;;4987973;28;115778;-79
2023/05/15 05:15:50;;;;;;;20.38;17.55;;;15.70;59.90;;;;;;4988306;28;114251;-79
2023/05/15 05:18:18;;;;;;;20.73;18.02;;;15.60;59.60;;;;;;4986945;28;114916;-80
2023/05/15 05:20:45;;;;;;;20.15;17.20;;;15.60;59.70;;;;;;5001207;28;114585;-79
2023/05/15 05:23:13;;;;;;;22.88;19.20;;;15.70;59.40;;;;;;5001215;28;114416;-79
2023/05/15 05:25:40;;;;;;;20.55;17.45;;;15.70;59.60;;;;;;5003328;28;114324;-79
2023/05/15 05:28:07;;;;;;;22.50;18.13;;;15.80;59.30;;;;;;4985418;28;117142;-79
2023/05/15 05:30:35;;;;;;;21.92;19.50;;;15.80;59.60;;;;;;4983590;28;115370;-79
2023/05/15 05:33:02;;;;;;;19.70;17.67;;;15.80;59.60;;;;;;4968831;28;114921;-80
2023/05/15 05:35:30;;;;;;;24.42;21.77;;;15.80;59.40;;;;;;4985495;28;114432;-79
2023/05/15 05:37:57;;;;;;;24.65;19.92;;;15.80;60.00;;;;;;4985939;28;115578;-79
2023/05/15 05:40:24;;;;;;;20.35;17.92;;;15.70;60.30;;;;;;4985470;28;115255;-79
2023/05/15 05:42:52;;;;;;;21.73;19.42;;;15.30;60.90;;;;;;4986419;28;114443;-80
2023/05/15 05:45:19;;;;;;;20.58;17.20;;;15.00;61.70;;;;;;4986362;28;114559;-79
2023/05/15 05:47:47;;;;;;;20.25;17.55;;;14.80;62.10;;;;;;4998557;28;114831;-79
2023/05/15 05:50:15;;;;;;;18.90;16.92;;;14.80;62.30;;;;;;4985529;28;115463;-79
2023/05/15 05:52:42;;;;;;;19.73;17.58;;;14.90;61.80;;;;;;4984546;28;115566;-79
2023/05/15 05:55:09;;;;;;;19.33;17.30;;;15.10;62.00;;;;;;4986457;28;114374;-80
2023/05/15 05:57:39;;;;;;;18.60;16.60;;;15.20;61.50;;;;;;4983653;28;115467;-79
2023/05/15 06:00:09;;;;;;;17.33;15.43;;;15.20;61.30;;;;;;4983823;28;117596;-81
2023/05/15 06:02:37;;;;;;;18.67;16.52;;;15.30;61.30;;;;;;4982297;28;114556;-81
2023/05/15 06:05:06;;;;;;;19.63;15.90;;;15.40;61.10;;;;;;4984938;28;114443;-80
2023/05/15 06:07:34;;;;;;;18.33;15.23;;;15.50;61.10;;;;;;4967623;28;116271;-80
2023/05/15 06:10:01;;;;;;;19.70;17.60;;;15.50;60.50;;;;;;4982809;28;114856;-80
2023/05/15 06:12:28;;;;;;;20.35;17.98;;;15.60;61.00;;;;;;4983690;28;114600;-80
2023/05/15 06:14:55;;;;;;;19.92;17.05;;;15.60;61.10;;;;;;4985974;28;114541;-81
2023/05/15 06:17:22;;;;;;;16.88;15.00;;;15.60;61.30;;;;;;4985977;28;114906;-80
2023/05/15 06:19:51;;;;;;;16.35;13.30;;;15.60;60.80;;;;;;5001402;28;116000;-80
2023/05/15 06:22:18;;;;;;;16.58;14.38;;;15.60;60.20;;;;;;4987796;28;114484;-81
2023/05/15 06:24:45;;;;;;;19.23;15.82;;;15.60;60.20;;;;;;4985300;28;114182;-82
2023/05/15 06:27:12;;;;;;;16.52;14.48;;;15.70;60.80;;;;;;4985180;28;116332;-81
2023/05/15 06:29:40;;;;;;;16.38;13.80;;;15.70;60.00;;;;;;4985057;28;114718;-81
2023/05/15 06:32:07;;;;;;;16.00;14.30;;;15.80;59.90;;;;;;4986921;28;114287;-80
2023/05/15 06:34:34;;;;;;;17.52;14.82;;;15.80;59.80;;;;;;4985816;28;116763;-81
2023/05/15 06:37:01;;;;;;;18.13;16.13;;;15.80;60.00;;;;;;4984189;28;118147;-81
2023/05/15 06:39:29;;;;;;;14.93;13.32;;;15.80;60.20;;;;;;4968494;28;115545;-80
2023/05/15 06:42:00;;;;;;;16.83;14.65;;;15.80;59.80;;;;;;4983627;28;114564;-81
2023/05/15 06:44:29;;;;;;;15.75;13.20;;;15.90;60.00;;;;;;4984952;28;115518;-81
2023/05/15 06:46:57;;;;;;;16.70;14.23;;;15.90;59.40;;;;;;4982770;28;115507;-81
2023/05/15 06:49:24;;;;;;;13.85;12.40;;;15.90;59.80;;;;;;4985244;28;115899;-81
2023/05/15 06:51:51;;;;;;;18.98;16.98;;;15.90;59.50;;;;;;4985556;28;114277;-81
2023/05/15 06:54:18;;;;;;;17.77;15.57;;;15.90;60.20;;;;;;5000149;28;114243;-82
2023/05/15 06:56:46;;;;;;;18.77;15.80;;;15.90;60.50;;;;;;4984537;28;115016;-81
2023/05/15 06:59:13;;;;;;;17.40;15.10;;;15.80;60.50;;;;;;4985084;28;114609;-81
2023/05/15 07:01:40;;;;;;;15.70;12.27;;;15.80;60.50;;;;;;4983805;28;116632;-81
2023/05/15 07:04:07;;;;;;;18.48;16.55;;;15.90;59.60;;;;;;4980351;28;114999;-81
2023/05/15 07:06:36;;;;;;;14.30;12.00;;;15.90;61.00;;;;;;4986186;28;115076;-81
2023/05/15 07:09:03;;;;;;;16.77;15.00;;;15.90;59.80;;;;;;4986096;28;114631;-81
2023/05/15 07:11:32;;;;;;;15.77;14.13;;;15.90;60.30;;;;;;4994531;28;114684;-81
2023/05/15 07:14:01;;;;;;;14.55;12.88;;;16.00;60.10;;;;;;4976642;28;114759;-80
2023/05/15 07:16:28;;;;;;;16.02;12.98;;;16.00;59.50;;;;;;4976125;28;115018;-81
2023/05/15 07:18:55;;;;;;;18.73;16.05;;;16.10;59.60;;;;;;4984528;28;115219;-81
2023/05/15 07:21:22;;;;;;;14.95;13.25;;;16.10;60.30;;;;;;4999773;28;114512;-81
2023/05/15 07:23:50;;;;;;;13.50;12.10;;;16.20;59.70;;;;;;4985488;28;114382;-81
2023/05/15 07:26:17;;;;;;;15.35;13.23;;;16.20;59.30;;;;;;4984037;28;114901;-79
2023/05/15 07:28:58;;;;;;;14.25;12.73;;;16.20;59.50;;;;;;4984630;28;117440;-79
2023/05/15 07:31:25;;;;;;;20.20;16.23;;;16.20;59.20;;;;;;4964411;28;114417;-80
2023/05/15 07:33:53;;;;;;;13.15;11.40;;;16.30;60.30;;;;;;4981451;28;114352;-79
2023/05/15 07:36:21;;;;;;;17.98;14.38;;;16.30;59.00;;;;;;4982920;28;115910;-79
2023/05/15 07:42:26;;;;;;;18.65;15.00;;;16.40;60.30;;;;;;4979146;28;114463;-80
2023/05/15 07:44:54;;;;;;;20.10;16.05;;;16.30;60.70;;;;;;4983497;28;114436;-80
2023/05/15 07:47:22;;;;;;;14.35;12.85;;;16.30;60.60;;;;;;4998075;28;115047;-80
2023/05/15 07:49:49;;;;;;;15.60;13.90;;;16.30;59.50;;;;;;4980093;28;114711;-81
2023/05/15 07:52:18;;;;;;;19.80;15.35;;;16.30;59.80;;;;;;4977720;28;114570;-80
2023/05/15 07:54:45;;;;;;;16.77;12.05;;;16.30;60.80;;;;;;4983383;28;114369;-79
2023/05/15 07:57:13;;;;;;;20.88;16.10;;;16.30;59.70;;;;;;4977265;28;116033;-81
2023/05/15 07:59:40;;;;;;;19.50;14.20;;;16.30;61.10;;;;;;4982349;28;114985;-80
2023/05/15 08:02:07;;;;;;;13.32;11.13;;;16.30;61.00;;;;;;4983751;28;115162;-79
2023/05/15 08:04:34;;;;;;;11.48;10.27;;;16.30;60.00;;;;;;4999389;28;114597;-79
2023/05/15 08:07:02;;;;;;;11.63;10.43;;;16.20;59.50;;;;;;4998372;28;114858;-80
2023/05/15 08:09:29;;;;;;;11.77;10.45;;;16.30;59.10;;;;;;4981270;28;114711;-80
2023/05/15 08:12:13;;;;;;;13.02;10.73;;;16.30;59.40;;;;;;4998185;28;114496;-80
2023/05/15 08:14:40;;;;;;;12.07;10.45;;;16.30;60.40;;;;;;4981821;28;114565;-80
2023/05/15 08:17:07;;;;;;;11.80;10.20;;;16.30;59.70;;;;;;4981987;28;115324;-80
2023/05/15 08:19:34;;;;;;;12.70;10.73;;;16.30;59.30;;;;;;4978886;28;115158;-80
2023/05/15 08:22:02;;;;;;;14.48;12.18;;;16.30;60.00;;;;;;4982246;28;114490;-80
2023/05/15 08:24:29;;;;;;;11.98;10.18;;;16.30;61.20;;;;;;4983003;28;114521;-80
2023/05/15 08:26:56;;;;;;;12.73;11.30;;;16.30;59.90;;;;;;4981242;28;115262;-80
2023/05/15 08:29:23;;;;;;;10.80;9.70;;;16.30;60.40;;;;;;4983119;28;114581;-80
2023/05/15 08:31:51;;;;;;;12.60;10.65;;;16.40;59.80;;;;;;4985265;28;114473;-80
2023/05/15 08:34:21;;;;;;;11.88;9.15;;;16.40;60.40;;;;;;4983981;28;115949;-81
2023/05/15 08:36:48;;;;;;;12.05;10.48;;;16.50;59.40;;;;;;4997441;28;115253;-81
2023/05/15 08:39:15;;;;;;;13.75;10.48;;;16.50;60.20;;;;;;4982414;28;114588;-80
2023/05/15 08:42:07;;;;;;;12.98;10.55;;;16.50;60.40;;;;;;4983240;28;115232;-80
2023/05/15 08:44:35;;;;;;;13.57;10.43;;;16.60;60.60;;;;;;4982419;28;114571;-80
2023/05/15 08:47:03;;;;;;;11.73;10.13;;;16.70;61.30;;;;;;4996883;28;116214;-79
2023/05/15 08:49:40;;;;;;;11.93;8.55;;;16.70;61.40;;;;;;4964446;28;117884;-79
2023/05/15 08:52:08;;;;;;;10.48;9.32;;;16.80;60.30;;;;;;4980629;28;114497;-79
2023/05/15 08:54:35;;;;;;;12.30;10.23;;;16.70;60.10;;;;;;4981089;28;114486;-80
2023/05/15 08:57:02;;;;;;;13.95;11.63;;;16.80;61.10;;;;;;4981156;28;115317;-80
2023/05/15 08:59:29;;;;;;;11.57;10.13;;;16.80;61.30;;;;;;4980570;28;114874;-80
2023/05/15 09:01:56;;;;;;;13.85;11.82;;;16.80;60.60;;;;;;4981603;28;115496;-80
2023/05/15 09:04:24;;;;;;;9.20;8.30;;;16.80;61.40;;;;;;4998268;28;114578;-80
2023/05/15 09:06:54;;;;;;;9.82;8.65;;;16.70;59.50;;;;;;4997083;28;116118;-80
2023/05/15 09:09:22;;;;;;;11.65;10.10;;;16.70;59.70;;;;;;4980692;28;114748;-80
2023/05/15 09:11:49;;;;;;;10.77;9.38;;;16.70;61.30;;;;;;4981678;28;114424;-80
2023/05/15 09:14:16;;;;;;;19.25;9.93;;;16.70;61.40;;;;;;4982750;28;114432;-79
2023/05/15 09:16:48;;;;;;;11.18;8.95;;;16.70;61.80;;;;;;4979261;28;114956;-79
2023/05/15 09:19:18;;;;;;;17.25;11.65;;;16.60;60.40;;;;;;4980142;28;114650;-80
2023/05/15 09:21:45;;;;;;;11.38;9.98;;;16.60;62.60;;;;;;4979445;28;114258;-80
2023/05/15 09:24:23;;;;;;;12.60;10.98;;;16.70;61.20;;;;;;4982674;28;114270;-80
2023/05/15 09:27:05;;;;;;;10.27;9.00;;;16.70;61.80;;;;;;4980307;28;116030;-80
2023/05/15 09:29:34;;;;;;;10.45;8.63;;;16.70;60.10;;;;;;4980394;28;114683;-80
2023/05/15 09:32:12;;;;;;;10.85;9.32;;;16.60;60.40;;;;;;4982132;28;114471;-80
2023/05/15 09:34:41;;;;;;;16.52;9.45;;;16.70;60.40;;;;;;4979777;28;114559;-80
2023/05/15 09:37:10;;;;;;;9.90;7.97;;;16.60;61.40;;;;;;4981506;28;114849;-80
2023/05/15 09:39:43;;;;;;;15.07;9.95;;;16.60;60.40;;;;;;4976032;28;118372;-80
2023/05/15 09:42:12;;;;;;;13.20;11.23;;;16.60;61.90;;;;;;4981330;28;114577;-79
2023/05/15 09:44:42;;;;;;;11.25;10.05;;;16.50;62.10;;;;;;4976432;28;114632;-79
2023/05/15 09:47:10;;;;;;;12.07;10.40;;;16.60;61.80;;;;;;4965051;28;116064;-80
2023/05/15 09:49:38;;;;;;;13.30;11.10;;;16.60;62.10;;;;;;4979470;28;115169;-80
2023/05/15 09:52:08;;;;;;;11.07;8.68;;;16.70;62.80;;;;;;4980962;28;114972;-80
2023/05/15 09:54:36;;;;;;;11.38;8.27;;;16.70;61.80;;;;;;4966047;28;114540;-80
2023/05/15 09:57:10;;;;;;;9.80;8.25;;;16.80;61.30;;;;;;4984408;28;114925;-80
2023/05/15 09:59:44;;;;;;;;;;;16.90;61.10;;;;;;4984442;28;118134;-80
2023/05/15 10:02:31;;;;;;;10.30;7.55;;;17.00;60.80;;;;;;4984982;28;114400;-80
2023/05/15 10:04:58;;;;;;;6.88;5.72;;;17.20;63.20;;;;;;4986343;28;114757;-80
2023/05/15 10:07:33;;;;;;;7.18;5.65;;;17.20;61.80;;;;;;4966463;28;117875;-80
2023/05/15 10:10:01;;;;;;;5.13;3.70;;;17.30;60.20;;;;;;4982027;28;115420;-79
2023/05/15 10:12:30;;;;;;;5.80;3.92;;;17.30;61.30;;;;;;4997941;28;114469;-79
2023/05/15 10:14:59;;;;;;;5.03;3.58;;;17.30;61.40;;;;;;4999438;28;115458;-80
2023/05/15 10:17:27;;;;;;;5.30;3.67;;;17.40;61.60;;;;;;4979184;28;115025;-82
2023/05/15 10:19:54;;;;;;;7.10;4.80;;;17.50;60.90;;;;;;4978322;28;115304;-80
2023/05/15 10:22:29;;;;;;;5.10;4.20;;;17.50;59.50;;;;;;4979444;28;114534;-79
2023/05/15 10:25:14;;;;;;;4.53;3.60;;;17.50;60.20;;;;;;4983236;28;114363;-80
2023/05/15 10:27:42;;;;;;;5.03;3.17;;;17.50;59.90;;;;;;4999696;28;114918;-80
2023/05/15 10:30:10;;;;;;;3.65;2.50;;;17.50;60.60;;;;;;4985206;28;115419;-80
2023/05/15 10:32:40;;;;;;;5.05;3.75;;;17.40;60.20;;;;;;4996472;28;117305;-80
2023/05/15 10:35:11;;;;;;;4.57;2.67;;;17.40;59.60;;;;;;4984427;28;114633;-80
2023/05/15 10:37:38;;;;;;;3.80;2.03;;;17.40;60.30;;;;;;5000062;28;116261;-80
2023/05/15 10:40:09;;;;;;;4.43;2.65;;;17.30;60.70;;;;;;4985200;28;115183;-80
2023/05/15 10:42:37;;;;;;;4.03;2.65;;;17.30;60.60;;;;;;4984213;28;114627;-80
2023/05/15 10:45:05;;;;;;;3.70;2.42;;;17.30;60.70;;;;;;4982712;28;114545;-80
2023/05/15 10:47:32;;;;;;;4.80;3.30;;;17.20;61.10;;;;;;4983461;28;114850;-80
2023/05/15 10:50:00;;;;;;;5.20;3.22;;;17.20;60.60;;;;;;4985375;28;114748;-79
2023/05/15 10:52:27;;;;;;;4.85;3.17;;;17.10;60.60;;;;;;4983999;28;114506;-80
2023/05/15 10:54:55;;;;;;;3.35;2.25;;;17.00;61.50;;;;;;5001019;28;114493;-79
2023/05/15 10:57:22;;;;;;;4.20;2.80;;;16.90;61.90;;;;;;4979017;28;115329;-80
2023/05/15 10:59:50;;;;;;;3.38;1.70;;;16.90;61.20;;;;;;4984820;28;114612;-79
2023/05/15 11:02:24;;;;;;;4.65;2.78;;;16.80;62.70;;;;;;4967908;28;114627;-80
2023/05/15 11:04:56;;;;;;;6.63;3.30;;;16.80;62.30;;;;;;4981635;28;114759;-80
2023/05/15 11:07:23;;;;;;;5.05;2.80;;;16.70;61.70;;;;;;4980665;28;115395;-81
2023/05/15 11:09:51;;;;;;;3.70;1.85;;;16.70;61.70;;;;;;4992608;28;115851;-81
2023/05/15 11:12:19;;;;;;;4.57;3.30;;;16.80;62.80;;;;;;4983574;28;114680;-81
2023/05/15 11:14:55;;;;;;;6.32;2.92;;;16.70;60.70;;;;;;4983999;28;114535;-81
2023/05/15 11:17:23;;;;;;;7.70;4.43;;;16.80;60.70;;;;;;4982718;28;114963;-81
2023/05/15 11:19:51;;;;;;;4.05;1.95;;;16.80;60.30;;;;;;4979152;28;114705;-81
2023/05/15 11:22:39;;;;;;;5.70;3.00;;;16.90;62.80;;;;;;4992782;28;115154;-81
2023/05/15 11:25:14;;;;;;;4.82;2.95;;;16.90;62.40;;;;;;4984333;28;114795;-81
2023/05/15 11:27:43;;;;;;;6.68;3.97;;;17.00;62.40;;;;;;4980065;28;115003;-80
2023/05/15 11:30:14;;;;;;;7.50;3.67;;;17.00;62.10;;;;;;4983297;28;114653;-80
2023/05/15 11:32:44;;;;;;;3.78;2.50;;;17.10;62.80;;;;;;4966467;28;114451;-80
2023/05/15 11:35:26;;;;;;;4.53;2.10;;;17.10;61.80;;;;;;4984813;28;114375;-80
2023/05/15 11:38:10;;;;;;;4.70;3.15;;;17.10;61.90;;;;;;4982410;28;114988;-80
2023/05/15 11:40:46;;;;;;;4.10;2.58;;;17.00;60.70;;;;;;4983064;28;114706;-81
2023/05/15 11:43:26;;;;;;;3.15;2.20;;;17.00;61.40;;;;;;4983654;28;114554;-81
2023/05/15 11:45:56;;;;;;;2.80;2.00;;;17.00;61.70;;;;;;4979107;28;114767;-80
2023/05/15 11:48:29;;;;;;;6.15;2.80;;;17.00;62.10;;;;;;4979722;28;115005;-80
2023/05/15 11:50:57;;;;;;;4.35;2.15;;;17.00;61.60;;;;;;4965833;28;116329;-80
2023/05/15 11:53:25;;;;;;;6.05;2.72;;;17.10;62.00;;;;;;4983410;28;117771;-82
2023/05/15 11:55:54;;;;;;;3.65;2.38;;;17.20;61.00;;;;;;4984017;28;114590;-81
2023/05/15 11:58:23;;;;;;;6.60;2.80;;;17.30;61.50;;;;;;4983638;28;114936;-81
2023/05/15 12:00:51;;;;;;;4.07;2.10;;;17.30;60.60;;;;;;4983620;28;114640;-80
2023/05/15 12:03:21;;;;;;;6.50;2.67;;;17.30;61.30;;;;;;4979642;28;114433;-81
2023/05/15 12:05:48;;;;;;;3.83;2.15;;;17.30;60.60;;;;;;4980643;28;114424;-81
2023/05/15 12:08:34;;;;;;;4.32;2.22;;;17.40;60.50;;;;;;4996371;28;116982;-81
2023/05/15 12:11:01;;;;;;;7.30;2.67;;;17.40;60.80;;;;;;4965171;28;114710;-81
2023/05/15 12:13:30;;;;;;;4.72;2.63;;;17.40;60.20;;;;;;4982987;28;114739;-81
2023/05/15 12:15:57;;;;;;;3.08;2.20;;;17.40;59.60;;;;;;4976426;28;114629;-81
2023/05/15 12:18:24;;;;;;;3.70;1.95;;;17.50;60.20;;;;;;4949580;28;115180;-81
2023/05/15 12:20:52;;;;;;;3.70;2.30;;;17.50;59.70;;;;;;4982488;28;114618;-81
2023/05/15 12:23:21;;;;;;;5.38;2.45;;;17.40;59.30;;;;;;4983481;28;114354;-80
2023/05/15 12:25:49;;;;;;;4.22;2.72;;;17.50;58.60;;;;;;4983955;28;114395;-81
2023/05/15 12:28:17;;;;;;;6.10;2.67;;;17.50;58.80;;;;;;4998386;28;114547;-80
2023/05/15 12:30:44;;;;;;;8.38;2.83;;;17.50;58.40;;;;;;4980218;28;114641;-81
2023/05/15 12:33:11;;;;;;;3.50;1.90;;;17.50;57.60;;;;;;4981536;28;114522;-82
2023/05/15 12:35:43;;;;;;;2.72;1.40;;;17.50;57.80;;;;;;4962750;28;115759;-82